Low temp

Not for real navigation. The accuracy of this data is not assured See disclaimer for more information



ICAO NAME COUNTRY WIND Kt GUST Kt VIS m TEMP/DEW C BARO METAR
CYCB Cambridge Bay, N. W. T. Canada 6 0 9999 -28/-31 30.52 CYCB 230900Z 35006KT 15SM IC CAVOK M28/M31 A3052 RMK SLP342
CYRT Rankin Inlet, N. W. T. Canada 14 0 12800 -27/-30 30.22 CYRT 230900Z 35014KT 8SM IC SCT250 M27/M30 A3022 RMK CI3 SLP240
CWEU Eureka, N. W. T. Canada 2 0 9999 -27/-31 30.53 CWEU 230900Z 11002KT 15SM IC CAVOK M27/M31 A3053 RMK SLP342
CWPX Cape Peel West, N. W. T. Canada 9 0 9999 -27/-31 30.41 CWPX 230900Z AUTO 01009KT ////SM //// NCD M27/M31 A3041
CXWB 3 0 9999 -26/-29 29.92 CXWB 230900Z AUTO 04003KT M26/M29 RMK AO1 SLP264 T12591291 53002

Show more